Pagrindinis puslapis
METAR-TAF:

METAR-TAF

Oro uostai :

Elatas, Izraelis

platuma: 29-43-25N, ilguma: 35-00-41E, Aukštis: 88 m

Dabartinis oras

Ataskaita buvo paskelbta 2 valandos ir 46 minutes, ne 19:50 UTC
Vėjas 18 kt iš Šiaurės
Temperatūra 31°C
Drėgmė 31%
Slėgis 1012 hPa
Matomumas 10 km arba daugiau
nėra debesų žemiau 1500 m ir nėra kamuolinių lietaus debesų

METAR: LLER 241950Z 36018KT CAVOK 31/12 Q1012

Laikas: 01:36 (22:36 UTC)

Prognozė

Ataskaita buvo paskelbta 5 valandos ir 31 minutes, ne 17:05 UTC
Prognozė galioja nuo 24 metu 18 UTC su 25 metu 18 UTC
Vėjas 17 kt iš Šiaurės
Matomumas 10 km arba daugiau
nėra debesų žemiau 1500 m ir nėra kamuolinių lietaus debesų
Tapsmas
nuo 24 metu 19 UTC su 24 metu 21 UTC
Vėjas 12 kt iš Šiaurės
Tapsmas
nuo 25 metu 05 UTC su 25 metu 07 UTC
Vėjas 18 kt iš Šiaurės/Šiaurės Rytų
Laikinai
nuo 25 metu 07 UTC su 25 metu 18 UTC
Vėjas 20 kt iš Šiaurės/Šiaurės Rytų su gūsio iki 30 kt

TAF: LLER 241705Z 2418/2518 01017KT CAVOK BECMG 2419/2421 36012KT BECMG 2505/2507 02018KT TEMPO 2507/2518 02020G30KT TX37/2513Z TN25/2503Z

Orai ataskaitas ir orų prognozės (METAR, TAF).

turimą stotys yra geltonos ir raudonos taškus žemėlapyje.

Perkelti pele per norėdami pamatyti stoties vardą.

Tada spustelėkite, norėdami matyti oro stebėjimo ir prognozės.

Norėdami pakeisti žemėlapį: spustelėkite ant žalios mygtukų su juodo kryžiaus žemyn,; žalią mygtuką su brūkšneliu, jei norite nutolinti; arba žalių rodyklių gretimoms žemėlapius.


METAR-TAF: